aviador You're here:

EIDW Decoded Metar

DUBLIN in IRELAND
Report Time2017-10-22 17:00:00
UTC Time2017-10-22 17:17:18
Flight Rules vfr VFR
Wind250° at 12 kt
W.Decomp.*RWY 28: 10.8 kt HW 5.3 kt LCW
RWY 34: 0.8 kt HW 12 kt LCW
W.Rank250° ranks 4
Current wind is below 250° avg. (13.3)
Visibility9999 m
Phenomena:N/A
Clouds:Few 018 Hf
Broken 050 Hf
Expected CloudBase > 1,600 ft AGL from Temp-Dew spread
Ceiling5,000 ft
Temp11°C (ISA -4)
Dew Point07°C (77% RH)
AAT6.0°C
QNH1015 hPa
Density Alt-108 ft
Elevation242 ft
Report Wrong Elevation
Raw Report
METAR EIDW 221700Z 25012KT 9999 FEW018 BKN050 11/07 Q1015 NOSIG=

Extra information for EIDW:More info

Metar Taf Metar & Taf Last 4 Metars F.Rules Stats Wind Profile Meteogram Temp Stats Airport Information Weather charts Add Link Nearby VenuesMetar ALERT Operation Metar Decoded Social comments